createdAt,value
2023-02-14T00:01:23.157Z,4.60
2023-02-14T00:03:50.471Z,4.60
2023-02-14T00:06:18.214Z,4.60
2023-02-14T00:08:45.648Z,4.60
2023-02-14T00:11:14.322Z,4.60
2023-02-14T00:14:02.128Z,4.60
2023-02-14T00:16:30.067Z,4.60
2023-02-14T00:19:03.988Z,4.50
2023-02-14T00:21:33.246Z,4.50
2023-02-14T00:24:00.561Z,4.60
2023-02-14T00:26:28.122Z,4.60
2023-02-14T00:28:55.307Z,4.60
2023-02-14T00:31:24.658Z,4.60
2023-02-14T00:33:52.123Z,4.60
2023-02-14T00:36:20.922Z,4.60
2023-02-14T00:38:50.359Z,4.50
2023-02-14T00:41:21.163Z,4.50
2023-02-14T00:43:49.991Z,4.60
2023-02-14T00:46:19.244Z,4.60
2023-02-14T00:48:46.901Z,4.50
2023-02-14T00:51:15.402Z,4.60
2023-02-14T00:53:44.432Z,4.60
2023-02-14T00:56:13.096Z,4.60
2023-02-14T00:58:40.853Z,4.60
2023-02-14T01:01:09.455Z,4.60
2023-02-14T01:03:37.072Z,4.50
2023-02-14T01:06:05.690Z,4.60
2023-02-14T01:08:33.548Z,4.50
2023-02-14T01:11:16.755Z,4.60
2023-02-14T01:13:45.035Z,4.50
2023-02-14T01:16:17.080Z,4.50
2023-02-14T01:18:45.212Z,4.50
2023-02-14T01:21:15.805Z,4.50
2023-02-14T01:23:44.082Z,4.50
2023-02-14T01:26:12.827Z,4.50
2023-02-14T01:28:40.859Z,4.50
2023-02-14T01:31:13.175Z,4.50
2023-02-14T01:33:42.442Z,4.50
2023-02-14T01:36:21.897Z,4.50
2023-02-14T01:38:53.029Z,4.50
2023-02-14T01:41:21.842Z,4.50
2023-02-14T01:44:15.218Z,4.50
2023-02-14T01:46:44.828Z,4.50
2023-02-14T01:49:15.444Z,4.50
2023-02-14T01:51:51.133Z,4.50
2023-02-14T01:54:23.205Z,4.50
2023-02-14T01:56:56.373Z,4.50
2023-02-14T01:59:27.080Z,4.40
2023-02-14T02:01:55.476Z,4.40
2023-02-14T02:04:28.378Z,4.40
2023-02-14T02:07:02.341Z,4.40
2023-02-14T02:09:53.732Z,4.40
2023-02-14T02:12:24.364Z,4.40
2023-02-14T02:14:55.182Z,4.40
2023-02-14T02:17:51.487Z,4.40
2023-02-14T02:20:37.509Z,4.50
2023-02-14T02:23:38.837Z,4.50
2023-02-14T02:26:33.868Z,4.50
2023-02-14T02:29:28.746Z,4.40
2023-02-14T02:32:07.449Z,4.40
2023-02-14T02:35:05.675Z,4.40
2023-02-14T02:38:09.925Z,4.30
2023-02-14T02:40:40.088Z,4.30
2023-02-14T02:43:43.249Z,4.30
2023-02-14T02:46:49.202Z,4.30
2023-02-14T02:49:39.500Z,4.30
2023-02-14T02:52:45.953Z,4.30
2023-02-14T02:55:25.696Z,4.30
2023-02-14T02:57:55.218Z,4.30
2023-02-14T03:00:24.563Z,4.30
2023-02-14T03:03:15.387Z,4.30
2023-02-14T03:05:43.684Z,4.30
2023-02-14T03:08:11.361Z,4.30
2023-02-14T03:10:39.705Z,4.20
2023-02-14T03:13:16.088Z,4.20
2023-02-14T03:16:15.625Z,4.20
2023-02-14T03:19:03.259Z,4.20
2023-02-14T03:21:55.272Z,4.20
2023-02-14T03:24:36.632Z,4.20
2023-02-14T03:27:15.303Z,4.20
2023-02-14T03:30:00.348Z,4.20
2023-02-14T03:32:39.557Z,4.20
2023-02-14T03:35:22.759Z,4.20
2023-02-14T03:37:57.921Z,4.10
2023-02-14T03:40:28.003Z,4.10
2023-02-14T03:43:06.021Z,4.10
2023-02-14T03:45:39.515Z,4.10
2023-02-14T03:48:11.556Z,4.20
2023-02-14T03:50:42.383Z,4.10
2023-02-14T03:53:12.731Z,4.20
2023-02-14T03:56:08.590Z,4.20
2023-02-14T03:58:41.481Z,4.10
2023-02-14T04:01:18.379Z,4.10
2023-02-14T04:03:46.301Z,4.10
2023-02-14T04:06:14.219Z,4.10
2023-02-14T04:08:41.460Z,4.10
2023-02-14T04:11:09.134Z,3.90
2023-02-14T04:13:37.618Z,3.90
2023-02-14T04:16:05.751Z,3.90
2023-02-14T04:18:52.559Z,3.90
2023-02-14T04:21:20.055Z,3.80
2023-02-14T04:23:47.323Z,3.70
2023-02-14T04:26:14.925Z,3.60
2023-02-14T04:28:42.281Z,3.60
2023-02-14T04:31:11.474Z,3.60
2023-02-14T04:33:39.487Z,3.60
2023-02-14T04:36:07.156Z,3.60
2023-02-14T04:38:34.730Z,3.60
2023-02-14T04:41:02.464Z,3.60
2023-02-14T04:43:30.051Z,3.60
2023-02-14T04:45:57.487Z,3.60
2023-02-14T04:48:24.756Z,3.60
2023-02-14T04:50:54.405Z,3.60
2023-02-14T04:53:22.180Z,3.60
2023-02-14T04:55:50.414Z,3.50
2023-02-14T04:58:18.317Z,3.50
2023-02-14T05:00:46.075Z,3.50
2023-02-14T05:03:13.349Z,3.50
2023-02-14T05:05:40.836Z,3.60
2023-02-14T05:08:08.027Z,3.60
2023-02-14T05:10:35.605Z,3.60
2023-02-14T05:13:02.806Z,3.50
2023-02-14T05:15:30.436Z,3.50
2023-02-14T05:18:01.702Z,3.40
2023-02-14T05:20:29.912Z,3.40
2023-02-14T05:23:03.371Z,3.30
2023-02-14T05:25:31.762Z,3.30
2023-02-14T05:27:59.088Z,3.40
2023-02-14T05:30:28.196Z,3.30
2023-02-14T05:32:56.007Z,3.30
2023-02-14T05:35:24.159Z,3.30
2023-02-14T05:37:51.369Z,3.40
2023-02-14T05:40:19.005Z,3.50
2023-02-14T05:42:46.365Z,3.50
2023-02-14T05:45:15.187Z,3.50
2023-02-14T05:47:42.435Z,3.50
2023-02-14T05:50:10.686Z,3.50
2023-02-14T05:52:38.081Z,3.50
2023-02-14T05:55:06.650Z,3.60
2023-02-14T05:57:34.052Z,3.50
2023-02-14T06:00:01.679Z,3.50
2023-02-14T06:02:29.546Z,3.50
2023-02-14T06:04:57.298Z,3.60
2023-02-14T06:07:24.713Z,3.50
2023-02-14T06:09:52.316Z,3.50
2023-02-14T06:12:19.612Z,3.50
2023-02-14T06:14:47.118Z,3.50
2023-02-14T06:17:14.518Z,3.50
2023-02-14T06:19:43.290Z,3.40
2023-02-14T06:22:10.488Z,3.40
2023-02-14T06:24:38.026Z,3.40
2023-02-14T06:27:05.333Z,3.40
2023-02-14T06:29:32.828Z,3.40
2023-02-14T06:32:05.803Z,3.40
2023-02-14T06:34:34.361Z,3.40
2023-02-14T06:37:01.645Z,3.40
2023-02-14T06:39:29.318Z,3.40
2023-02-14T06:41:56.668Z,3.50
2023-02-14T06:44:24.133Z,3.40
2023-02-14T06:46:51.888Z,3.40
2023-02-14T06:49:19.344Z,3.50
2023-02-14T06:51:47.592Z,3.40
2023-02-14T06:54:15.014Z,3.20
2023-02-14T06:56:42.371Z,3.20
2023-02-14T06:59:09.879Z,3.30
2023-02-14T07:01:37.883Z,3.40
2023-02-14T07:04:05.861Z,3.40
2023-02-14T07:06:33.161Z,3.60
2023-02-14T07:09:00.861Z,3.50
2023-02-14T07:11:28.721Z,3.40
2023-02-14T07:13:56.321Z,3.40
2023-02-14T07:16:23.737Z,3.40
2023-02-14T07:18:51.285Z,3.50
2023-02-14T07:21:18.553Z,3.50
2023-02-14T07:23:47.819Z,3.50
2023-02-14T07:26:18.200Z,3.50
2023-02-14T07:28:48.816Z,3.60
2023-02-14T07:31:18.438Z,3.60
2023-02-14T07:33:46.299Z,3.70
2023-02-14T07:36:13.641Z,3.70
2023-02-14T07:38:41.478Z,3.70
2023-02-14T07:41:08.755Z,3.70
2023-02-14T07:43:36.296Z,3.70
2023-02-14T07:46:03.768Z,3.70
2023-02-14T07:48:33.894Z,3.60
2023-02-14T07:51:04.779Z,3.60
2023-02-14T07:53:32.334Z,3.70
2023-02-14T07:55:59.793Z,3.70
2023-02-14T07:58:27.963Z,3.60
2023-02-14T08:00:55.519Z,3.70
2023-02-14T08:03:23.049Z,3.70
2023-02-14T08:05:57.350Z,3.70
2023-02-14T08:08:27.499Z,3.70
2023-02-14T08:10:54.956Z,3.80
2023-02-14T08:13:22.857Z,3.80
2023-02-14T08:16:07.111Z,3.70
2023-02-14T08:18:42.314Z,3.50
2023-02-14T08:21:11.234Z,3.50
2023-02-14T08:23:38.796Z,3.70
2023-02-14T08:26:07.040Z,3.80
2023-02-14T08:28:35.224Z,3.90
2023-02-14T08:31:04.368Z,3.80
2023-02-14T08:33:33.787Z,3.70
2023-02-14T08:36:01.123Z,3.80
2023-02-14T08:38:29.061Z,3.90
2023-02-14T08:41:03.069Z,3.90
2023-02-14T08:43:34.175Z,4.00
2023-02-14T08:46:02.040Z,4.00
2023-02-14T08:48:30.020Z,3.90
2023-02-14T08:50:57.514Z,3.90
2023-02-14T08:53:25.240Z,3.80
2023-02-14T08:55:52.582Z,3.90
2023-02-14T08:58:20.101Z,4.10
2023-02-14T09:00:47.570Z,4.20
2023-02-14T09:03:15.063Z,4.30
2023-02-14T09:05:43.067Z,4.30
2023-02-14T09:08:10.520Z,4.10
2023-02-14T09:10:37.858Z,4.10
2023-02-14T09:13:05.841Z,4.10
2023-02-14T09:15:33.226Z,4.00
2023-02-14T09:18:00.907Z,4.20
2023-02-14T09:20:28.152Z,4.20
2023-02-14T09:22:57.147Z,4.00
2023-02-14T09:25:24.440Z,4.00
2023-02-14T09:27:52.036Z,3.80
2023-02-14T09:30:19.523Z,3.90
2023-02-14T09:32:47.005Z,4.00
2023-02-14T09:35:14.234Z,4.00
2023-02-14T09:38:00.494Z,4.00
2023-02-14T09:40:27.818Z,4.00
2023-02-14T09:43:10.209Z,4.10
2023-02-14T09:45:38.391Z,4.10
2023-02-14T09:48:19.842Z,4.10
2023-02-14T09:50:54.742Z,4.30
2023-02-14T09:53:32.617Z,4.20
2023-02-14T09:56:12.333Z,4.30
2023-02-14T09:59:09.393Z,4.50
2023-02-14T10:01:42.618Z,4.40
2023-02-14T10:04:18.924Z,4.30
2023-02-14T10:07:09.927Z,4.30
2023-02-14T10:09:46.513Z,4.30
2023-02-14T10:12:31.708Z,4.30
2023-02-14T10:15:02.296Z,4.20
2023-02-14T10:17:40.836Z,4.20
2023-02-14T10:20:25.791Z,4.10
2023-02-14T10:23:23.141Z,4.30
2023-02-14T10:26:06.760Z,4.50
2023-02-14T10:28:51.949Z,4.50
2023-02-14T10:31:44.905Z,4.40
2023-02-14T10:34:12.057Z,4.50
2023-02-14T10:36:44.794Z,4.40
2023-02-14T10:39:55.341Z,4.30
2023-02-14T10:42:50.946Z,4.50
2023-02-14T10:45:49.938Z,4.60
2023-02-14T10:48:32.355Z,4.60
2023-02-14T10:51:11.379Z,4.40
2023-02-14T10:53:47.756Z,4.60
2023-02-14T10:56:20.339Z,4.80
2023-02-14T10:58:50.601Z,5.00
2023-02-14T11:01:19.136Z,4.80
2023-02-14T11:03:58.669Z,4.80
2023-02-14T11:06:26.090Z,4.80
2023-02-14T11:08:55.596Z,4.70
2023-02-14T11:11:26.971Z,4.70
2023-02-14T11:13:54.596Z,4.60
2023-02-14T11:16:36.963Z,4.40
2023-02-14T11:19:20.993Z,4.50
2023-02-14T11:21:50.934Z,4.50
2023-02-14T11:24:34.930Z,4.70
2023-02-14T11:27:04.391Z,4.70
2023-02-14T11:29:45.026Z,4.60
2023-02-14T11:32:22.802Z,4.70
2023-02-14T11:35:00.501Z,4.70
2023-02-14T11:37:43.529Z,4.80
2023-02-14T11:40:27.657Z,5.00
2023-02-14T11:43:12.851Z,5.00
2023-02-14T11:45:44.410Z,5.10
2023-02-14T11:48:37.848Z,5.30
2023-02-14T11:51:15.008Z,5.00
2023-02-14T11:53:51.982Z,5.00
2023-02-14T11:56:21.435Z,4.70
2023-02-14T11:58:59.998Z,4.70
2023-02-14T12:01:36.341Z,4.80
2023-02-14T12:04:17.842Z,4.70
2023-02-14T12:06:45.948Z,4.80
2023-02-14T12:09:23.024Z,4.70
2023-02-14T12:12:00.885Z,4.70
2023-02-14T12:14:33.717Z,4.80
2023-02-14T12:17:31.251Z,4.80
2023-02-14T12:20:04.378Z,4.70
2023-02-14T12:22:37.696Z,4.80
2023-02-14T12:25:33.644Z,4.90
2023-02-14T12:28:07.544Z,4.90
2023-02-14T12:30:35.831Z,4.80
2023-02-14T12:33:05.902Z,4.80
2023-02-14T12:35:36.015Z,4.70
2023-02-14T12:38:19.186Z,4.90
2023-02-14T12:41:30.801Z,5.00
2023-02-14T12:44:04.380Z,5.00
2023-02-14T12:46:37.464Z,5.20
2023-02-14T12:49:28.756Z,5.10
2023-02-14T12:52:11.010Z,4.80
2023-02-14T12:54:56.421Z,4.90
2023-02-14T12:57:30.112Z,4.80
2023-02-14T13:00:04.036Z,4.70
2023-02-14T13:02:43.675Z,4.60
2023-02-14T13:05:22.840Z,4.60
2023-02-14T13:07:56.380Z,4.60
2023-02-14T13:10:54.728Z,4.60
2023-02-14T13:13:30.713Z,4.70
2023-02-14T13:16:08.260Z,4.90
2023-02-14T13:18:46.674Z,5.00
2023-02-14T13:21:18.382Z,5.00
2023-02-14T13:23:47.827Z,4.90
2023-02-14T13:26:24.964Z,5.00
2023-02-14T13:29:28.925Z,5.10
2023-02-14T13:32:01.825Z,4.90
2023-02-14T13:34:36.949Z,5.00
2023-02-14T13:37:10.801Z,4.90
2023-02-14T13:39:44.190Z,4.90
2023-02-14T13:42:13.575Z,4.90
2023-02-14T13:44:49.339Z,4.90
2023-02-14T13:47:23.927Z,4.90
2023-02-14T13:50:02.026Z,5.00
2023-02-14T13:52:43.444Z,4.90
2023-02-14T13:55:24.482Z,4.90
2023-02-14T13:58:07.718Z,4.80
2023-02-14T14:00:39.320Z,4.90
2023-02-14T14:03:12.658Z,4.70
2023-02-14T14:05:44.724Z,4.80
2023-02-14T14:08:21.155Z,4.70
2023-02-14T14:10:51.233Z,4.60
2023-02-14T14:13:54.722Z,4.40
2023-02-14T14:16:27.823Z,4.50
2023-02-14T14:18:56.843Z,4.70
2023-02-14T14:21:25.546Z,4.90
2023-02-14T14:24:30.465Z,4.70
2023-02-14T14:27:14.260Z,4.80
2023-02-14T14:29:57.508Z,4.70
2023-02-14T14:32:36.320Z,4.70
2023-02-14T14:35:08.498Z,4.70
2023-02-14T14:37:45.778Z,4.60
2023-02-14T14:40:30.071Z,4.50
2023-02-14T14:43:18.011Z,4.50
2023-02-14T14:45:48.146Z,4.50
2023-02-14T14:48:40.140Z,4.50
2023-02-14T14:51:15.881Z,4.60
2023-02-14T14:53:47.468Z,4.60
2023-02-14T14:56:22.569Z,4.60
2023-02-14T14:58:50.425Z,4.40
2023-02-14T15:01:37.637Z,4.40
2023-02-14T15:04:12.421Z,4.40
2023-02-14T15:06:41.066Z,4.40
2023-02-14T15:09:30.769Z,4.40
2023-02-14T15:12:21.874Z,4.40
2023-02-14T15:14:54.686Z,4.40
2023-02-14T15:17:26.929Z,4.50
2023-02-14T15:20:05.662Z,4.50
2023-02-14T15:22:52.996Z,4.40
2023-02-14T15:25:28.053Z,4.40
2023-02-14T15:27:55.696Z,4.40
2023-02-14T15:30:33.838Z,4.50
2023-02-14T15:33:06.564Z,4.60
2023-02-14T15:35:35.307Z,4.40
2023-02-14T15:38:06.989Z,4.40
2023-02-14T15:40:35.755Z,4.40
2023-02-14T15:43:36.266Z,4.40
2023-02-14T15:46:29.263Z,4.40
2023-02-14T15:49:01.335Z,4.30
2023-02-14T15:51:31.250Z,4.30
2023-02-14T15:54:02.128Z,4.30
2023-02-14T15:56:49.001Z,4.30
2023-02-14T15:59:21.179Z,4.30
2023-02-14T16:01:52.837Z,4.30
2023-02-14T16:04:26.632Z,4.40
2023-02-14T16:07:22.936Z,4.40
2023-02-14T16:10:12.660Z,4.50
2023-02-14T16:12:42.248Z,4.40
2023-02-14T16:15:21.512Z,4.50
2023-02-14T16:17:49.271Z,4.50
2023-02-14T16:20:40.093Z,4.40
2023-02-14T16:23:18.156Z,4.40
2023-02-14T16:25:46.735Z,4.40
2023-02-14T16:28:14.427Z,4.30
2023-02-14T16:30:43.423Z,4.30
2023-02-14T16:33:19.978Z,4.30
2023-02-14T16:35:49.363Z,4.40
2023-02-14T16:38:19.383Z,4.40
2023-02-14T16:40:49.954Z,4.50
2023-02-14T16:43:19.599Z,4.50
2023-02-14T16:45:48.310Z,4.60
2023-02-14T16:48:16.052Z,4.70
2023-02-14T16:50:44.762Z,4.70
2023-02-14T16:53:25.396Z,4.70
2023-02-14T16:55:54.909Z,4.70
2023-02-14T16:58:27.360Z,4.50
2023-02-14T17:00:54.785Z,4.40
2023-02-14T17:03:22.223Z,4.40
2023-02-14T17:05:50.046Z,4.40
2023-02-14T17:08:17.451Z,4.40
2023-02-14T17:10:47.549Z,4.40
2023-02-14T17:13:22.321Z,4.40
2023-02-14T17:15:50.850Z,4.50
2023-02-14T17:18:21.531Z,4.50
2023-02-14T17:20:49.202Z,4.50
2023-02-14T17:23:16.572Z,4.50
2023-02-14T17:25:44.183Z,4.50
2023-02-14T17:28:11.374Z,4.60
2023-02-14T17:30:39.082Z,4.60
2023-02-14T17:33:06.296Z,4.50
2023-02-14T17:35:40.026Z,4.40
2023-02-14T17:38:07.399Z,4.40
2023-02-14T17:40:35.885Z,4.40
2023-02-14T17:43:03.253Z,4.40
2023-02-14T17:45:31.090Z,4.40
2023-02-14T17:47:58.228Z,4.40
2023-02-14T17:50:25.767Z,4.40
2023-02-14T17:52:57.040Z,4.40
2023-02-14T17:55:24.808Z,4.40
2023-02-14T17:57:52.431Z,4.40
2023-02-14T18:00:21.677Z,4.40
2023-02-14T18:02:49.437Z,4.40
2023-02-14T18:05:17.233Z,4.50
2023-02-14T18:07:44.729Z,4.40
2023-02-14T18:10:12.708Z,4.40
2023-02-14T18:12:40.048Z,4.40
2023-02-14T18:15:07.946Z,4.40
2023-02-14T18:17:35.135Z,4.40
2023-02-14T18:20:03.375Z,4.40
2023-02-14T18:22:31.597Z,4.40
2023-02-14T18:24:59.550Z,4.30
2023-02-14T18:27:26.987Z,4.30
2023-02-14T18:29:54.512Z,4.20
2023-02-14T18:32:21.794Z,4.20
2023-02-14T18:34:51.101Z,4.20
2023-02-14T18:37:19.012Z,4.30
2023-02-14T18:39:46.813Z,4.20
2023-02-14T18:42:14.264Z,4.30
2023-02-14T18:44:41.990Z,4.30
2023-02-14T18:47:09.339Z,4.30
2023-02-14T18:49:36.966Z,4.20
2023-02-14T18:52:05.023Z,4.20
2023-02-14T18:54:32.498Z,4.20
2023-02-14T18:56:59.723Z,4.20
2023-02-14T18:59:27.431Z,4.10
2023-02-14T19:01:54.618Z,4.20
2023-02-14T19:04:22.398Z,4.10
2023-02-14T19:06:49.556Z,4.10
2023-02-14T19:09:19.746Z,4.20
2023-02-14T19:11:47.365Z,4.20
2023-02-14T19:14:14.918Z,4.20
2023-02-14T19:16:53.518Z,4.20
2023-02-14T19:19:22.854Z,4.30
2023-02-14T19:21:50.670Z,4.20
2023-02-14T19:24:19.767Z,4.30
2023-02-14T19:26:47.296Z,4.40
2023-02-14T19:29:20.141Z,4.50
2023-02-14T19:31:49.662Z,4.50
2023-02-14T19:34:20.397Z,4.60
2023-02-14T19:36:49.386Z,4.60
2023-02-14T19:39:17.294Z,4.50
2023-02-14T19:41:45.180Z,4.40
2023-02-14T19:44:14.383Z,4.40
2023-02-14T19:46:43.052Z,4.30
2023-02-14T19:49:17.114Z,4.40
2023-02-14T19:51:45.199Z,4.30
2023-02-14T19:54:14.122Z,4.20
2023-02-14T19:56:43.578Z,4.10
2023-02-14T19:59:13.334Z,4.20
2023-02-14T20:01:42.021Z,4.20
2023-02-14T20:04:13.794Z,4.30
2023-02-14T20:06:42.370Z,4.30
2023-02-14T20:09:10.353Z,4.30
2023-02-14T20:11:51.689Z,4.40
2023-02-14T20:14:22.829Z,4.50
2023-02-14T20:16:51.454Z,4.50
2023-02-14T20:19:20.745Z,4.50
2023-02-14T20:21:50.268Z,4.60
2023-02-14T20:24:24.256Z,4.60
2023-02-14T20:26:53.120Z,4.70
2023-02-14T20:29:23.095Z,4.60
2023-02-14T20:31:53.088Z,4.60
2023-02-14T20:34:21.414Z,4.60
2023-02-14T20:36:52.957Z,4.60
2023-02-14T20:39:22.631Z,4.70
2023-02-14T20:41:50.330Z,4.60
2023-02-14T20:44:22.233Z,4.60
2023-02-14T20:46:51.843Z,4.70
2023-02-14T20:49:21.559Z,4.70
2023-02-14T20:51:50.389Z,4.80
2023-02-14T20:54:24.172Z,4.80
2023-02-14T20:56:52.859Z,4.80
2023-02-14T20:59:26.874Z,4.80
2023-02-14T21:01:58.408Z,4.80
2023-02-14T21:04:26.419Z,4.90
2023-02-14T21:06:53.867Z,4.90
2023-02-14T21:09:21.579Z,5.00
2023-02-14T21:11:50.276Z,5.00
2023-02-14T21:14:17.854Z,5.10
2023-02-14T21:16:45.170Z,5.10
2023-02-14T21:19:12.882Z,5.10
2023-02-14T21:21:40.839Z,5.10
2023-02-14T21:24:10.928Z,5.20
2023-02-14T21:26:38.926Z,5.10
2023-02-14T21:29:06.944Z,5.00
2023-02-14T21:31:34.977Z,5.00
2023-02-14T21:34:04.812Z,5.10
2023-02-14T21:36:37.184Z,5.10
2023-02-14T21:39:06.650Z,5.00
2023-02-14T21:41:34.986Z,5.00
2023-02-14T21:44:03.577Z,5.00
2023-02-14T21:46:33.398Z,5.00
2023-02-14T21:49:21.197Z,4.90
2023-02-14T21:51:49.226Z,4.80
2023-02-14T21:54:17.746Z,4.80
2023-02-14T21:56:45.267Z,4.90
2023-02-14T21:59:13.095Z,4.90
2023-02-14T22:01:42.419Z,4.90
2023-02-14T22:04:12.231Z,5.00
2023-02-14T22:06:41.874Z,5.00
2023-02-14T22:09:11.108Z,5.00
2023-02-14T22:11:38.432Z,5.00
2023-02-14T22:14:06.072Z,4.90
2023-02-14T22:16:33.408Z,4.90
2023-02-14T22:19:00.944Z,4.90
2023-02-14T22:21:28.502Z,4.80
2023-02-14T22:23:56.183Z,4.90
2023-02-14T22:26:26.272Z,5.00
2023-02-14T22:28:57.061Z,5.00
2023-02-14T22:31:25.315Z,5.00
2023-02-14T22:33:53.433Z,5.00
2023-02-14T22:36:21.304Z,5.00
2023-02-14T22:38:48.942Z,5.00
2023-02-14T22:41:18.605Z,5.00
2023-02-14T22:43:46.751Z,5.10
2023-02-14T22:46:19.946Z,5.00
2023-02-14T22:48:48.983Z,5.10
2023-02-14T22:51:23.041Z,5.10
2023-02-14T22:53:52.312Z,5.10
2023-02-14T22:56:23.728Z,5.10
2023-02-14T22:59:02.022Z,5.10
2023-02-14T23:01:29.429Z,5.00
2023-02-14T23:03:58.530Z,5.00
2023-02-14T23:06:27.448Z,4.90
2023-02-14T23:08:55.880Z,4.90
2023-02-14T23:11:29.230Z,5.00
2023-02-14T23:14:16.129Z,4.90
2023-02-14T23:17:03.169Z,5.00
2023-02-14T23:19:51.653Z,5.00
2023-02-14T23:22:22.878Z,5.10
2023-02-14T23:24:52.369Z,5.00
2023-02-14T23:27:22.683Z,5.10
2023-02-14T23:29:50.230Z,5.00
2023-02-14T23:32:17.617Z,5.00
2023-02-14T23:34:45.523Z,5.00
2023-02-14T23:37:13.911Z,5.00
2023-02-14T23:39:42.115Z,5.00
2023-02-14T23:42:14.776Z,4.90
2023-02-14T23:44:43.701Z,4.90
2023-02-14T23:47:11.852Z,4.90
2023-02-14T23:49:40.755Z,4.80
2023-02-14T23:52:10.512Z,4.80
2023-02-14T23:54:38.552Z,4.70
2023-02-14T23:57:07.402Z,4.70
2023-02-14T23:59:36.502Z,4.80
